Time;durP1;ratioP1;P1;durP2;ratioP2;P2;SDS_P1;SDS_P2;PMS_P1;PMS_P2;Temp;Humidity;BMP_temperature;BMP_pressure;BME280_temperature;BME280_humidity;BME280_pressure;Samples;Min_cycle;Max_cycle;Signal;HPM_P1;HPM_P2
2021/01/31 00:00:49;;;;;;;;;;;12.20;54.90;;;;;;2080809;28;752;-55
2021/01/31 00:02:11;;;;;;;;;;;12.10;55.40;;;;;;2081018;28;770;-59
2021/01/31 00:03:31;;;;;;;;;;;12.20;55.50;;;;;;2088785;28;732;-54
2021/01/31 00:04:50;;;;;;;;;;;12.20;55.00;;;;;;2082669;28;721;-55
2021/01/31 00:06:09;;;;;;;;;;;12.20;55.00;;;;;;2076788;28;741;-55
2021/01/31 00:07:30;;;;;;;;;;;12.10;55.00;;;;;;2089040;28;979;-55
2021/01/31 00:08:49;;;;;;;;;;;12.10;55.00;;;;;;2093482;28;1469;-55
2021/01/31 00:10:09;;;;;;;;;;;12.10;55.00;;;;;;2095011;28;1035;-55
2021/01/31 00:11:29;;;;;;;;;;;12.10;55.00;;;;;;2097101;28;788;-55
2021/01/31 00:12:48;;;;;;;;;;;12.20;55.20;;;;;;2097253;28;738;-54
2021/01/31 00:14:07;;;;;;;;;;;12.10;55.10;;;;;;2097483;28;871;-54
2021/01/31 00:15:27;;;;;;;;;;;12.10;55.70;;;;;;2096494;28;712;-53
2021/01/31 00:16:46;;;;;;;;;;;12.10;55.70;;;;;;2095949;28;782;-54
2021/01/31 00:18:05;;;;;;;;;;;12.10;55.20;;;;;;2097149;28;1476;-53
2021/01/31 00:19:24;;;;;;;;;;;12.10;55.20;;;;;;2087985;28;787;-54
2021/01/31 00:20:45;;;;;;;;;;;12.10;55.20;;;;;;2093869;28;725;-54
2021/01/31 00:22:04;;;;;;;;;;;12.10;55.30;;;;;;2090642;28;844;-54
2021/01/31 00:23:23;;;;;;;;;;;12.10;55.30;;;;;;2091720;28;732;-57
2021/01/31 00:24:42;;;;;;;;;;;12.10;55.30;;;;;;2089959;28;757;-54
2021/01/31 00:26:01;;;;;;;;;;;12.10;55.30;;;;;;2087791;28;1965;-54
2021/01/31 00:27:22;;;;;;;;;;;12.00;55.30;;;;;;2089409;28;744;-54
2021/01/31 00:28:41;;;;;;;;;;;12.10;55.40;;;;;;2088981;28;1408;-54
2021/01/31 00:30:00;;;;;;;;;;;12.10;55.90;;;;;;2088276;28;777;-54
2021/01/31 00:31:19;;;;;;;;;;;12.00;55.40;;;;;;2091658;28;828;-54
2021/01/31 00:32:38;;;;;;;;;;;12.00;55.40;;;;;;2091122;28;747;-55
2021/01/31 00:33:58;;;;;;;;;;;12.10;56.00;;;;;;2082734;28;776;-55
2021/01/31 00:35:17;;;;;;;;;;;12.00;55.50;;;;;;2086612;28;944;-54
2021/01/31 00:36:37;;;;;;;;;;;12.00;55.50;;;;;;2088242;28;744;-54
2021/01/31 00:37:56;;;;;;;;;;;12.00;55.50;;;;;;2087403;28;1475;-53
2021/01/31 00:39:16;;;;;;;;;;;12.00;55.50;;;;;;2082943;28;1086;-55
2021/01/31 00:40:35;;;;;;;;;;;12.00;55.50;;;;;;2102198;28;728;-54
2021/01/31 00:41:55;;;;;;;;;;;12.00;55.60;;;;;;2100762;28;762;-53
2021/01/31 00:43:14;;;;;;;;;;;12.00;55.60;;;;;;2097901;28;712;-55
2021/01/31 00:44:33;;;;;;;;;;;12.00;55.60;;;;;;2097200;28;747;-55
2021/01/31 00:45:53;;;;;;;;;;;12.00;55.60;;;;;;2097265;28;1969;-55
2021/01/31 00:47:12;;;;;;;;;;;12.00;55.70;;;;;;2097283;28;780;-56
2021/01/31 00:48:31;;;;;;;;;;;12.00;56.20;;;;;;2097259;28;1371;-55
2021/01/31 00:49:50;;;;;;;;;;;12.00;56.30;;;;;;2097625;28;729;-54
2021/01/31 00:51:09;;;;;;;;;;;12.00;55.80;;;;;;2097753;28;1003;-55
2021/01/31 00:52:28;;;;;;;;;;;12.00;55.80;;;;;;2088808;28;741;-55
2021/01/31 00:53:48;;;;;;;;;;;12.00;55.80;;;;;;2090564;28;721;-54
2021/01/31 00:55:08;;;;;;;;;;;12.00;55.80;;;;;;2093141;28;749;-56
2021/01/31 00:56:27;;;;;;;;;;;12.00;55.80;;;;;;2088724;28;764;-55
2021/01/31 00:57:47;;;;;;;;;;;12.00;55.90;;;;;;2093787;28;710;-56
2021/01/31 00:59:09;;;;;;;;;;;12.00;55.90;;;;;;2094313;28;780;-55
2021/01/31 01:00:33;;;;;;;;;;;12.00;55.90;;;;;;2096848;28;740;-55
2021/01/31 01:01:52;;;;;;;;;;;11.90;56.40;;;;;;2102700;28;729;-52
2021/01/31 01:03:11;;;;;;;;;;;11.90;55.80;;;;;;2097050;28;748;-56
2021/01/31 01:04:47;;;;;;;;;;;11.90;55.90;;;;;;2087992;28;763;-57
2021/01/31 01:06:06;;;;;;;;;;;11.90;55.90;;;;;;2109652;28;1971;-55
2021/01/31 01:07:26;;;;;;;;;;;11.90;56.00;;;;;;2096587;28;979;-56
2021/01/31 01:08:45;;;;;;;;;;;11.90;56.00;;;;;;2093969;28;1493;-55
2021/01/31 01:10:05;;;;;;;;;;;11.90;56.00;;;;;;2094722;28;1000;-56
2021/01/31 01:11:24;;;;;;;;;;;11.90;56.00;;;;;;2097286;28;852;-56
2021/01/31 01:12:43;;;;;;;;;;;11.90;56.10;;;;;;2097594;28;741;-55
2021/01/31 01:14:02;;;;;;;;;;;11.90;56.10;;;;;;2097781;28;721;-56
2021/01/31 01:15:22;;;;;;;;;;;11.90;56.10;;;;;;2096566;28;1035;-56
2021/01/31 01:16:41;;;;;;;;;;;11.90;56.10;;;;;;2088823;28;742;-55
2021/01/31 01:18:00;;;;;;;;;;;11.90;56.10;;;;;;2094143;28;1328;-55
2021/01/31 01:19:20;;;;;;;;;;;11.90;56.20;;;;;;2097443;28;732;-55
2021/01/31 01:20:39;;;;;;;;;;;11.90;56.20;;;;;;2095077;28;1091;-56
2021/01/31 01:21:58;;;;;;;;;;;11.80;56.10;;;;;;2096969;28;791;-55
2021/01/31 01:23:17;;;;;;;;;;;11.80;56.10;;;;;;2097262;28;722;-55
2021/01/31 01:24:37;;;;;;;;;;;11.90;56.30;;;;;;2097463;28;697;-55
2021/01/31 01:25:56;;;;;;;;;;;11.80;56.20;;;;;;2097250;28;1963;-56
2021/01/31 01:27:15;;;;;;;;;;;11.80;56.20;;;;;;2097978;28;749;-56
2021/01/31 01:28:34;;;;;;;;;;;11.80;56.30;;;;;;2100345;28;1457;-55
2021/01/31 01:29:53;;;;;;;;;;;11.80;56.30;;;;;;2100224;28;756;-55
2021/01/31 01:31:12;;;;;;;;;;;11.80;56.30;;;;;;2100309;28;713;-55
2021/01/31 01:32:31;;;;;;;;;;;11.80;56.80;;;;;;2099637;28;785;-55
2021/01/31 01:33:51;;;;;;;;;;;11.80;56.90;;;;;;2100100;28;740;-55
2021/01/31 01:35:10;;;;;;;;;;;11.80;56.90;;;;;;2099633;28;1045;-55
2021/01/31 01:36:29;;;;;;;;;;;11.80;56.40;;;;;;2100529;28;785;-56
2021/01/31 01:37:48;;;;;;;;;;;11.80;56.40;;;;;;2090032;28;972;-56
2021/01/31 01:39:07;;;;;;;;;;;11.80;56.40;;;;;;2084069;28;1066;-55
2021/01/31 01:40:29;;;;;;;;;;;11.80;56.40;;;;;;2093353;28;724;-55
2021/01/31 01:41:48;;;;;;;;;;;11.80;56.40;;;;;;2091358;28;783;-55
2021/01/31 01:43:18;;;;;;;;;;;11.80;56.50;;;;;;2091766;28;784;-56
2021/01/31 01:44:37;;;;;;;;;;;11.80;56.40;;;;;;2108141;28;709;-55
2021/01/31 01:45:59;;;;;;;;;;;11.80;56.50;;;;;;2102725;28;1902;-55
2021/01/31 01:47:20;;;;;;;;;;;11.80;56.60;;;;;;2099976;28;751;-56
2021/01/31 01:48:39;;;;;;;;;;;11.80;56.50;;;;;;2100541;28;1358;-55
2021/01/31 01:50:03;;;;;;;;;;;11.70;57.00;;;;;;2099319;28;758;-55
2021/01/31 01:51:33;;;;;;;;;;;11.70;57.00;;;;;;2099457;28;751;-55
2021/01/31 01:52:53;;;;;;;;;;;11.70;56.50;;;;;;2100162;28;698;-55
2021/01/31 01:54:17;;;;;;;;;;;11.80;56.60;;;;;;2091182;28;736;-55
2021/01/31 01:55:38;;;;;;;;;;;11.80;56.70;;;;;;2101808;28;759;-55
2021/01/31 01:56:58;;;;;;;;;;;11.80;56.60;;;;;;2116526;28;701;-55
2021/01/31 01:58:17;;;;;;;;;;;11.70;56.60;;;;;;2094220;28;1492;-55
2021/01/31 01:59:36;;;;;;;;;;;11.70;56.70;;;;;;2096604;28;742;-55
2021/01/31 02:00:55;;;;;;;;;;;11.70;57.20;;;;;;2099709;28;725;-55
2021/01/31 02:02:18;;;;;;;;;;;11.70;56.70;;;;;;2099724;28;781;-55
2021/01/31 02:03:38;;;;;;;;;;;11.70;56.70;;;;;;2099955;28;793;-56
2021/01/31 02:05:00;;;;;;;;;;;11.70;56.70;;;;;;2098771;28;724;-55
2021/01/31 02:06:20;;;;;;;;;;;11.70;56.70;;;;;;2099696;28;755;-55
2021/01/31 02:07:39;;;;;;;;;;;11.70;56.70;;;;;;2086951;28;967;-56
2021/01/31 02:08:59;;;;;;;;;;;11.70;57.30;;;;;;2094861;28;1280;-55
2021/01/31 02:10:19;;;;;;;;;;;11.70;56.30;;;;;;2095390;28;1171;-55
2021/01/31 02:11:38;;;;;;;;;;;11.70;56.70;;;;;;2091366;28;951;-56
2021/01/31 02:12:58;;;;;;;;;;;11.70;57.30;;;;;;2096390;28;835;-55
2021/01/31 02:14:17;;;;;;;;;;;11.70;56.90;;;;;;2099601;28;768;-55
2021/01/31 02:15:36;;;;;;;;;;;11.70;56.90;;;;;;2099247;28;711;-55
2021/01/31 02:16:58;;;;;;;;;;;11.70;56.90;;;;;;2100105;28;725;-57
2021/01/31 02:18:20;;;;;;;;;;;11.70;56.90;;;;;;2099641;28;1348;-56
2021/01/31 02:19:48;;;;;;;;;;;11.70;56.90;;;;;;2099709;28;757;-54
2021/01/31 02:21:26;;;;;;;;;;;11.60;57.40;;;;;;2099301;28;765;-56
2021/01/31 02:23:04;;;;;;;;;;;11.60;56.90;;;;;;2098783;28;729;-55
2021/01/31 02:24:29;;;;;;;;;;;11.60;57.40;;;;;;2100009;28;729;-55
2021/01/31 02:25:54;;;;;;;;;;;11.70;57.00;;;;;;2100096;28;1976;-55
2021/01/31 02:27:29;;;;;;;;;;;11.60;56.90;;;;;;2099981;28;733;-56
2021/01/31 02:29:24;;;;;;;;;;;11.60;56.90;;;;;;2091197;28;1460;-55
2021/01/31 02:31:02;;;;;;;;;;;11.60;57.00;;;;;;2098505;28;1447;-56
2021/01/31 02:32:30;;;;;;;;;;;11.60;57.00;;;;;;2099098;28;791;-56
2021/01/31 02:33:54;;;;;;;;;;;11.60;57.00;;;;;;2099892;28;713;-55
2021/01/31 02:35:13;;;;;;;;;;;11.60;57.00;;;;;;2098754;28;780;-55
2021/01/31 02:36:44;;;;;;;;;;;11.60;57.00;;;;;;2099567;28;997;-55
2021/01/31 02:38:26;;;;;;;;;;;11.60;57.00;;;;;;2096308;28;1411;-55
2021/01/31 02:39:47;;;;;;;;;;;11.60;57.00;;;;;;2089860;28;1644;-54
2021/01/31 02:41:27;;;;;;;;;;;11.60;57.10;;;;;;2098604;28;797;-55
2021/01/31 02:42:46;;;;;;;;;;;11.60;57.10;;;;;;2099304;28;742;-54
2021/01/31 02:44:06;;;;;;;;;;;11.60;57.10;;;;;;2098766;28;722;-55
2021/01/31 02:45:29;;;;;;;;;;;11.60;57.10;;;;;;2086321;28;1965;-55
2021/01/31 02:47:01;;;;;;;;;;;11.50;57.10;;;;;;2093117;28;772;-55
2021/01/31 02:48:21;;;;;;;;;;;11.50;57.10;;;;;;2088186;28;1467;-55
2021/01/31 02:49:45;;;;;;;;;;;11.50;57.10;;;;;;2083703;28;804;-54
2021/01/31 02:51:09;;;;;;;;;;;11.50;57.10;;;;;;2103838;28;744;-55
2021/01/31 02:52:29;;;;;;;;;;;11.50;57.20;;;;;;2098190;28;776;-54
2021/01/31 02:54:03;;;;;;;;;;;11.50;57.20;;;;;;2094920;28;751;-54
2021/01/31 02:55:25;;;;;;;;;;;11.50;57.20;;;;;;2087849;28;805;-55
2021/01/31 02:56:53;;;;;;;;;;;11.50;57.20;;;;;;2095893;28;705;-54
2021/01/31 02:58:22;;;;;;;;;;;11.50;57.20;;;;;;2098016;28;1354;-55
2021/01/31 02:59:43;;;;;;;;;;;11.50;57.30;;;;;;2097672;28;717;-55
2021/01/31 03:01:05;;;;;;;;;;;11.50;57.20;;;;;;2097877;28;734;-56
2021/01/31 03:02:29;;;;;;;;;;;11.50;57.80;;;;;;2097927;28;751;-54
2021/01/31 03:03:54;;;;;;;;;;;11.50;57.30;;;;;;2098136;28;737;-53
2021/01/31 03:05:14;;;;;;;;;;;11.50;57.30;;;;;;2097122;28;720;-54
2021/01/31 03:06:37;;;;;;;;;;;11.50;57.90;;;;;;2097564;28;781;-56
2021/01/31 03:08:03;;;;;;;;;;;11.50;57.40;;;;;;2081325;28;1444;-56
2021/01/31 03:09:31;;;;;;;;;;;11.50;57.40;;;;;;2094612;28;1055;-55
2021/01/31 03:10:55;;;;;;;;;;;11.50;57.90;;;;;;2095710;28;772;-55
2021/01/31 03:12:32;;;;;;;;;;;11.50;57.40;;;;;;2083781;28;825;-57
2021/01/31 03:13:53;;;;;;;;;;;11.40;57.30;;;;;;2081519;28;718;-55
2021/01/31 03:15:15;;;;;;;;;;;11.50;57.40;;;;;;2077394;28;761;-54
2021/01/31 03:16:53;;;;;;;;;;;11.50;57.40;;;;;;2078445;28;750;-54
2021/01/31 03:18:17;;;;;;;;;;;11.50;57.40;;;;;;2081439;28;1353;-56
2021/01/31 03:19:40;;;;;;;;;;;11.50;57.50;;;;;;2081062;28;761;-55
2021/01/31 03:21:01;;;;;;;;;;;11.50;57.40;;;;;;2080932;28;794;-54
2021/01/31 03:22:27;;;;;;;;;;;11.50;57.40;;;;;;2081446;28;820;-54
2021/01/31 03:23:48;;;;;;;;;;;11.40;57.30;;;;;;2081341;28;726;-54
2021/01/31 03:25:09;;;;;;;;;;;11.40;57.40;;;;;;2072176;28;716;-54
2021/01/31 03:26:30;;;;;;;;;;;11.40;57.30;;;;;;2073148;28;719;-54
2021/01/31 03:27:49;;;;;;;;;;;11.40;57.40;;;;;;2078394;28;747;-53
2021/01/31 03:29:08;;;;;;;;;;;11.40;57.40;;;;;;2078057;28;735;-54
2021/01/31 03:30:27;;;;;;;;;;;11.40;57.40;;;;;;2095880;28;1248;-54
2021/01/31 03:31:49;;;;;;;;;;;11.40;57.40;;;;;;2089255;28;747;-55
2021/01/31 03:33:11;;;;;;;;;;;11.40;58.00;;;;;;2078327;28;792;-56
2021/01/31 03:34:32;;;;;;;;;;;11.40;57.50;;;;;;2100245;28;713;-56
2021/01/31 03:35:51;;;;;;;;;;;11.40;57.50;;;;;;2092283;28;751;-54
2021/01/31 03:37:10;;;;;;;;;;;11.40;57.60;;;;;;2089265;28;738;-54
2021/01/31 03:38:31;;;;;;;;;;;11.40;57.50;;;;;;2096848;28;1496;-55
2021/01/31 03:39:51;;;;;;;;;;;11.40;57.60;;;;;;2088726;28;1032;-54
2021/01/31 03:41:11;;;;;;;;;;;11.40;58.10;;;;;;2094092;28;1550;-55
2021/01/31 03:42:30;;;;;;;;;;;11.40;58.10;;;;;;2097933;28;721;-56
2021/01/31 03:43:49;;;;;;;;;;;11.40;57.60;;;;;;2098009;28;747;-55
2021/01/31 03:45:09;;;;;;;;;;;11.30;57.50;;;;;;2092071;28;1681;-55
2021/01/31 03:46:34;;;;;;;;;;;11.40;57.60;;;;;;2082045;28;775;-55
2021/01/31 03:48:01;;;;;;;;;;;11.40;57.60;;;;;;2087282;28;901;-55
2021/01/31 03:49:27;;;;;;;;;;;11.30;57.60;;;;;;2105859;28;1062;-55
2021/01/31 03:50:47;;;;;;;;;;;11.30;57.60;;;;;;2097371;28;992;-55
2021/01/31 03:52:06;;;;;;;;;;;11.30;57.60;;;;;;2097840;28;769;-56
2021/01/31 03:53:25;;;;;;;;;;;11.30;58.10;;;;;;2097466;28;745;-56
2021/01/31 03:54:44;;;;;;;;;;;11.30;57.60;;;;;;2096718;28;786;-55
2021/01/31 03:56:04;;;;;;;;;;;11.30;57.60;;;;;;2094123;28;943;-55
2021/01/31 03:57:25;;;;;;;;;;;11.30;57.70;;;;;;2094322;28;807;-55
2021/01/31 03:58:44;;;;;;;;;;;11.30;57.70;;;;;;2094646;28;1396;-55
2021/01/31 04:00:05;;;;;;;;;;;11.30;57.70;;;;;;2089086;28;792;-55
2021/01/31 04:01:30;;;;;;;;;;;11.30;57.70;;;;;;2094903;28;729;-55
2021/01/31 04:02:54;;;;;;;;;;;11.30;57.70;;;;;;2094845;28;728;-55
2021/01/31 04:04:15;;;;;;;;;;;11.30;57.80;;;;;;2094634;28;795;-55
2021/01/31 04:05:34;;;;;;;;;;;11.30;57.90;;;;;;2096548;28;1967;-55
2021/01/31 04:06:53;;;;;;;;;;;11.30;58.00;;;;;;2081296;28;995;-55
2021/01/31 04:08:12;;;;;;;;;;;11.30;58.00;;;;;;2095912;28;1419;-56
2021/01/31 04:09:35;;;;;;;;;;;11.30;57.90;;;;;;2082655;28;892;-55
2021/01/31 04:10:54;;;;;;;;;;;11.30;57.90;;;;;;2086167;28;1037;-56
2021/01/31 04:12:14;;;;;;;;;;;11.40;57.90;;;;;;2094542;28;974;-56
2021/01/31 04:13:34;;;;;;;;;;;11.40;57.80;;;;;;2097415;28;771;-55
2021/01/31 04:14:54;;;;;;;;;;;11.50;57.70;;;;;;2096346;28;741;-56
2021/01/31 04:16:13;;;;;;;;;;;11.50;57.60;;;;;;2090675;28;1782;-56
2021/01/31 04:17:32;;;;;;;;;;;11.60;57.50;;;;;;2082092;28;924;-56
2021/01/31 04:18:51;;;;;;;;;;;11.60;57.50;;;;;;2088961;28;1474;-55
2021/01/31 04:20:11;;;;;;;;;;;11.70;57.20;;;;;;2086027;28;1445;-55
2021/01/31 04:21:30;;;;;;;;;;;11.70;57.00;;;;;;2078497;28;1380;-55
2021/01/31 04:22:49;;;;;;;;;;;11.80;57.00;;;;;;2089369;28;1431;-56
2021/01/31 04:24:08;;;;;;;;;;;11.80;57.40;;;;;;2089187;28;1385;-55
2021/01/31 04:25:27;;;;;;;;;;;11.90;56.80;;;;;;2088567;28;1948;-56
2021/01/31 04:26:46;;;;;;;;;;;11.90;56.60;;;;;;2078891;28;1091;-55
2021/01/31 04:28:09;;;;;;;;;;;11.90;56.50;;;;;;2086472;28;1435;-55
2021/01/31 04:29:28;;;;;;;;;;;12.00;56.40;;;;;;2090096;28;1040;-56
2021/01/31 04:30:49;;;;;;;;;;;12.10;56.40;;;;;;2089161;28;1221;-55
2021/01/31 04:32:08;;;;;;;;;;;12.10;56.20;;;;;;2088850;28;1251;-55
2021/01/31 04:33:28;;;;;;;;;;;12.10;56.00;;;;;;2088610;28;1112;-55
2021/01/31 04:34:47;;;;;;;;;;;12.20;56.00;;;;;;2088194;28;1017;-55
2021/01/31 04:36:06;;;;;;;;;;;12.20;55.70;;;;;;2088910;28;1376;-55
2021/01/31 04:37:25;;;;;;;;;;;12.30;55.60;;;;;;2084188;28;1384;-55
2021/01/31 04:38:44;;;;;;;;;;;12.30;55.90;;;;;;2088036;28;1531;-56
2021/01/31 04:40:04;;;;;;;;;;;12.40;55.40;;;;;;2089066;28;1284;-55
2021/01/31 04:41:26;;;;;;;;;;;12.50;55.30;;;;;;2088097;28;1193;-56
2021/01/31 04:42:45;;;;;;;;;;;12.50;55.20;;;;;;2082011;28;1290;-56
2021/01/31 04:44:05;;;;;;;;;;;12.60;55.10;;;;;;2076236;28;1206;-55
2021/01/31 04:45:24;;;;;;;;;;;12.60;54.90;;;;;;2080308;28;1918;-55
2021/01/31 04:46:43;;;;;;;;;;;12.70;54.90;;;;;;2086165;28;1229;-56
2021/01/31 04:48:06;;;;;;;;;;;12.70;54.70;;;;;;2085434;28;1501;-55
2021/01/31 04:49:25;;;;;;;;;;;12.80;54.70;;;;;;2101300;28;1264;-55
2021/01/31 04:50:52;;;;;;;;;;;12.80;54.50;;;;;;2089771;28;1310;-55
2021/01/31 04:52:23;;;;;;;;;;;12.90;54.40;;;;;;2089105;28;1148;-55
2021/01/31 04:54:00;;;;;;;;;;;12.90;54.30;;;;;;2074646;28;1363;-55
2021/01/31 04:55:19;;;;;;;;;;;13.00;54.20;;;;;;2085454;28;1070;-54
2021/01/31 04:56:45;;;;;;;;;;;13.10;54.00;;;;;;2085447;28;1153;-56
2021/01/31 04:58:17;;;;;;;;;;;13.10;53.90;;;;;;2086098;28;1423;-56
2021/01/31 04:59:37;;;;;;;;;;;13.20;53.80;;;;;;2097571;28;1221;-57
2021/01/31 05:00:58;;;;;;;;;;;13.30;53.80;;;;;;2092165;28;1070;-54
2021/01/31 05:02:19;;;;;;;;;;;13.30;53.60;;;;;;2086544;28;1123;-55
2021/01/31 05:03:43;;;;;;;;;;;13.40;53.60;;;;;;2097893;28;1255;-55
2021/01/31 05:05:02;;;;;;;;;;;13.40;53.30;;;;;;2087171;28;1135;-57
2021/01/31 05:06:22;;;;;;;;;;;13.50;53.30;;;;;;2088619;28;1110;-55
2021/01/31 05:07:43;;;;;;;;;;;13.50;53.30;;;;;;2099195;28;1078;-56
2021/01/31 05:09:03;;;;;;;;;;;13.50;53.30;;;;;;2089490;28;1428;-55
2021/01/31 05:10:22;;;;;;;;;;;13.50;53.30;;;;;;2088009;28;1235;-56
2021/01/31 05:11:44;;;;;;;;;;;13.50;53.30;;;;;;2085200;28;1101;-55
2021/01/31 05:13:12;;;;;;;;;;;13.50;53.40;;;;;;2087921;28;1244;-54
2021/01/31 05:14:34;;;;;;;;;;;13.40;53.30;;;;;;2092548;28;1291;-57
2021/01/31 05:15:53;;;;;;;;;;;13.40;53.40;;;;;;2090884;28;1152;-54
2021/01/31 05:17:13;;;;;;;;;;;13.40;53.50;;;;;;2087231;28;1055;-54
2021/01/31 05:18:33;;;;;;;;;;;13.40;53.60;;;;;;2087996;28;1506;-54
2021/01/31 05:19:52;;;;;;;;;;;13.30;53.70;;;;;;2083898;28;1230;-54
2021/01/31 05:21:12;;;;;;;;;;;13.30;53.80;;;;;;2084608;28;1162;-55
2021/01/31 05:22:32;;;;;;;;;;;13.30;53.90;;;;;;2076136;28;1152;-57
2021/01/31 05:23:59;;;;;;;;;;;13.30;54.00;;;;;;2084317;28;1274;-54
2021/01/31 05:25:19;;;;;;;;;;;13.20;54.00;;;;;;2093910;28;1134;-56
2021/01/31 05:26:39;;;;;;;;;;;13.20;54.10;;;;;;2088224;28;1289;-57
2021/01/31 05:27:59;;;;;;;;;;;13.20;54.20;;;;;;2081643;28;1520;-58
2021/01/31 05:29:22;;;;;;;;;;;13.10;54.20;;;;;;2087616;28;1342;-55
2021/01/31 05:30:41;;;;;;;;;;;13.10;54.30;;;;;;2079799;28;1127;-55
2021/01/31 05:32:05;;;;;;;;;;;13.10;54.40;;;;;;2082120;28;1141;-58
2021/01/31 05:33:24;;;;;;;;;;;13.10;54.50;;;;;;2087338;28;1277;-57
2021/01/31 05:34:53;;;;;;;;;;;13.00;55.10;;;;;;2084220;28;1156;-56
2021/01/31 05:36:13;;;;;;;;;;;13.00;54.60;;;;;;2081128;28;1805;-57
2021/01/31 05:37:42;;;;;;;;;;;13.00;54.80;;;;;;2084033;28;1190;-57
2021/01/31 05:39:02;;;;;;;;;;;12.90;54.80;;;;;;2087800;28;1135;-54
2021/01/31 05:40:35;;;;;;;;;;;12.90;54.90;;;;;;2076767;28;1158;-55
2021/01/31 05:41:54;;;;;;;;;;;12.90;55.00;;;;;;2087142;28;1470;-54
2021/01/31 05:43:14;;;;;;;;;;;12.90;55.10;;;;;;2079940;28;1168;-57
2021/01/31 05:44:34;;;;;;;;;;;12.80;55.10;;;;;;2080526;28;1369;-56
2021/01/31 05:45:53;;;;;;;;;;;12.80;55.20;;;;;;2088215;28;1899;-57
2021/01/31 05:47:17;;;;;;;;;;;12.80;55.80;;;;;;2080946;28;1286;-57
2021/01/31 05:48:36;;;;;;;;;;;12.80;55.80;;;;;;2084585;28;1596;-57
2021/01/31 05:49:55;;;;;;;;;;;12.80;55.40;;;;;;2070863;28;1171;-56
2021/01/31 05:51:15;;;;;;;;;;;12.70;55.40;;;;;;2078220;28;1218;-54
2021/01/31 05:52:35;;;;;;;;;;;12.70;55.50;;;;;;2098797;28;1154;-55
2021/01/31 05:53:54;;;;;;;;;;;12.70;55.60;;;;;;2079889;28;1516;-56
2021/01/31 05:55:21;;;;;;;;;;;12.70;55.70;;;;;;2080746;28;1212;-57
2021/01/31 05:56:40;;;;;;;;;;;12.70;55.70;;;;;;2078781;28;1168;-58
2021/01/31 05:58:11;;;;;;;;;;;12.60;55.70;;;;;;2084841;28;1381;-55
2021/01/31 05:59:37;;;;;;;;;;;12.60;55.80;;;;;;2076690;28;1181;-57
2021/01/31 06:01:06;;;;;;;;;;;12.60;56.00;;;;;;2097247;28;1063;-55
2021/01/31 06:02:27;;;;;;;;;;;12.60;56.00;;;;;;2088168;28;857;-57
2021/01/31 06:03:46;;;;;;;;;;;12.60;56.10;;;;;;2083037;28;1104;-57
2021/01/31 06:05:08;;;;;;;;;;;12.60;56.10;;;;;;2087346;28;1187;-53
2021/01/31 06:06:27;;;;;;;;;;;12.50;56.10;;;;;;2088051;28;1168;-55
2021/01/31 06:07:56;;;;;;;;;;;12.50;56.10;;;;;;2087437;28;1071;-55
2021/01/31 06:09:19;;;;;;;;;;;12.50;56.20;;;;;;2085723;28;1213;-56
2021/01/31 06:10:39;;;;;;;;;;;12.50;56.30;;;;;;2076705;28;1136;-56
2021/01/31 06:12:07;;;;;;;;;;;12.50;56.40;;;;;;2092238;28;1379;-55
2021/01/31 06:13:26;;;;;;;;;;;12.40;56.40;;;;;;2086105;28;1515;-54
2021/01/31 06:14:47;;;;;;;;;;;12.40;56.40;;;;;;2087699;28;1129;-56
2021/01/31 06:16:07;;;;;;;;;;;12.40;56.50;;;;;;2081210;28;904;-55
2021/01/31 06:17:27;;;;;;;;;;;12.40;57.00;;;;;;2082714;28;1256;-56
2021/01/31 06:18:55;;;;;;;;;;;12.40;56.60;;;;;;2085526;28;1553;-54
2021/01/31 06:20:16;;;;;;;;;;;12.40;56.60;;;;;;2087606;28;1092;-57
2021/01/31 06:21:37;;;;;;;;;;;12.40;57.20;;;;;;2083722;28;1246;-57
2021/01/31 06:22:56;;;;;;;;;;;12.40;56.70;;;;;;2089112;28;1191;-56
2021/01/31 06:24:18;;;;;;;;;;;12.30;56.70;;;;;;2088938;28;1047;-58
2021/01/31 06:25:38;;;;;;;;;;;12.30;56.90;;;;;;2076129;28;1902;-57
2021/01/31 06:26:58;;;;;;;;;;;12.30;57.00;;;;;;2085366;28;1204;-57
2021/01/31 06:28:18;;;;;;;;;;;12.30;57.00;;;;;;2087778;28;1458;-57
2021/01/31 06:29:46;;;;;;;;;;;12.30;57.10;;;;;;2085797;28;1235;-57
2021/01/31 06:31:11;;;;;;;;;;;12.40;57.60;;;;;;2089273;28;1141;-56
2021/01/31 06:32:31;;;;;;;;;;;12.40;57.00;;;;;;2097747;28;1346;-57
2021/01/31 06:33:50;;;;;;;;;;;12.40;56.90;;;;;;2101346;28;1506;-56
2021/01/31 06:35:10;;;;;;;;;;;12.50;56.90;;;;;;2092398;28;1217;-56
2021/01/31 06:36:45;;;;;;;;;;;12.50;56.70;;;;;;2088572;28;1441;-57
2021/01/31 06:38:23;;;;;;;;;;;12.60;56.70;;;;;;2090085;28;1526;-56
2021/01/31 06:39:47;;;;;;;;;;;12.60;56.50;;;;;;2079788;28;1063;-57
2021/01/31 06:41:14;;;;;;;;;;;12.70;56.30;;;;;;2083991;28;1097;-56
2021/01/31 06:42:52;;;;;;;;;;;12.70;56.20;;;;;;2102238;28;1256;-57
2021/01/31 06:44:29;;;;;;;;;;;12.80;56.00;;;;;;2089250;28;923;-57
2021/01/31 06:45:51;;;;;;;;;;;12.90;55.90;;;;;;2089209;28;1890;-57
2021/01/31 06:47:12;;;;;;;;;;;12.90;55.70;;;;;;2089236;28;1128;-54
2021/01/31 06:48:50;;;;;;;;;;;13.00;55.70;;;;;;2090348;28;1787;-57
2021/01/31 06:50:18;;;;;;;;;;;13.00;55.50;;;;;;2088575;28;1040;-58
2021/01/31 06:51:39;;;;;;;;;;;13.10;55.30;;;;;;2086615;28;1109;-57
2021/01/31 06:53:18;;;;;;;;;;;13.20;55.20;;;;;;2089963;28;1104;-56
2021/01/31 06:54:42;;;;;;;;;;;13.20;55.10;;;;;;2098223;28;1098;-55
2021/01/31 06:56:20;;;;;;;;;;;13.30;55.10;;;;;;2091722;28;1056;-56
2021/01/31 06:57:55;;;;;;;;;;;13.30;54.90;;;;;;2089355;28;1196;-56
2021/01/31 06:59:20;;;;;;;;;;;13.40;54.70;;;;;;2088612;28;917;-55
2021/01/31 07:00:43;;;;;;;;;;;13.50;54.70;;;;;;2086978;28;1026;-55
2021/01/31 07:02:02;;;;;;;;;;;13.50;54.50;;;;;;2088901;28;1214;-54
2021/01/31 07:03:37;;;;;;;;;;;13.60;54.40;;;;;;2089343;28;1097;-54
2021/01/31 07:05:05;;;;;;;;;;;13.60;54.30;;;;;;2081464;28;1200;-55
2021/01/31 07:06:34;;;;;;;;;;;13.70;54.20;;;;;;2081092;28;1898;-54
2021/01/31 07:07:58;;;;;;;;;;;13.70;54.10;;;;;;2080741;28;1127;-55
2021/01/31 07:09:20;;;;;;;;;;;13.80;54.00;;;;;;2080603;28;1075;-55
2021/01/31 07:10:47;;;;;;;;;;;13.90;53.80;;;;;;2071708;28;1239;-57
2021/01/31 07:12:25;;;;;;;;;;;13.90;53.70;;;;;;2079555;28;1205;-56
2021/01/31 07:14:03;;;;;;;;;;;13.90;53.60;;;;;;2078867;28;1268;-56
2021/01/31 07:15:33;;;;;;;;;;;14.10;53.80;;;;;;2082314;28;1201;-57
2021/01/31 07:16:58;;;;;;;;;;;14.10;53.80;;;;;;2080948;28;1064;-57
2021/01/31 07:18:17;;;;;;;;;;;14.20;53.70;;;;;;2071070;28;1441;-56
2021/01/31 07:19:38;;;;;;;;;;;14.30;53.40;;;;;;2075551;28;826;-57
2021/01/31 07:20:57;;;;;;;;;;;14.30;53.30;;;;;;2081600;28;1217;-56
2021/01/31 07:22:17;;;;;;;;;;;14.30;53.20;;;;;;2083718;28;1130;-56
2021/01/31 07:23:36;;;;;;;;;;;14.30;53.20;;;;;;2083878;28;1198;-57
2021/01/31 07:25:05;;;;;;;;;;;14.30;53.10;;;;;;2079976;28;1242;-57
2021/01/31 07:26:33;;;;;;;;;;;14.30;53.10;;;;;;2086196;28;1914;-56
2021/01/31 07:28:13;;;;;;;;;;;14.40;53.20;;;;;;2087559;28;1258;-56
2021/01/31 07:29:40;;;;;;;;;;;14.40;53.10;;;;;;2089484;28;1107;-56
2021/01/31 07:31:01;;;;;;;;;;;14.40;53.60;;;;;;2088727;28;919;-55
2021/01/31 07:32:20;;;;;;;;;;;14.40;53.00;;;;;;2101846;28;1053;-58
2021/01/31 07:33:40;;;;;;;;;;;14.40;53.00;;;;;;2103587;28;1062;-55
2021/01/31 07:35:04;;;;;;;;;;;14.50;53.10;;;;;;2106291;28;1263;-57
2021/01/31 07:36:27;;;;;;;;;;;14.50;53.60;;;;;;2091383;28;1043;-56
2021/01/31 07:37:48;;;;;;;;;;;14.50;53.10;;;;;;2080344;28;1263;-57
2021/01/31 07:39:10;;;;;;;;;;;14.40;53.00;;;;;;2082515;28;1187;-56
2021/01/31 07:40:31;;;;;;;;;;;14.40;53.10;;;;;;2084599;28;1146;-56
2021/01/31 07:41:51;;;;;;;;;;;14.40;53.10;;;;;;2087066;28;1166;-56
2021/01/31 07:43:13;;;;;;;;;;;14.40;53.20;;;;;;2080272;28;1386;-55
2021/01/31 07:44:34;;;;;;;;;;;14.40;53.20;;;;;;2080650;28;1397;-54
2021/01/31 07:46:00;;;;;;;;;;;14.40;53.20;;;;;;2096017;28;1975;-55
2021/01/31 07:47:21;;;;;;;;;;;14.40;53.30;;;;;;2102537;28;1269;-53
2021/01/31 07:48:40;;;;;;;;;;;14.40;53.30;;;;;;2095326;28;1443;-55
2021/01/31 07:49:59;;;;;;;;;;;14.50;53.40;;;;;;2088766;28;1246;-54
2021/01/31 07:51:19;;;;;;;;;;;14.50;53.40;;;;;;2088773;28;1157;-54
2021/01/31 07:52:54;;;;;;;;;;;14.40;53.30;;;;;;2092675;28;1048;-57
2021/01/31 07:54:22;;;;;;;;;;;14.50;53.50;;;;;;2104698;28;1165;-56
2021/01/31 07:55:44;;;;;;;;;;;14.40;53.40;;;;;;2090363;28;1263;-55
2021/01/31 07:57:22;;;;;;;;;;;14.50;53.50;;;;;;2088897;28;1178;-56
2021/01/31 07:58:41;;;;;;;;;;;14.50;53.60;;;;;;2087257;28;1503;-55
2021/01/31 08:00:08;;;;;;;;;;;14.50;54.20;;;;;;2089043;28;1163;-56
2021/01/31 08:01:39;;;;;;;;;;;14.50;54.20;;;;;;2088183;28;1245;-57
2021/01/31 08:02:59;;;;;;;;;;;14.50;53.60;;;;;;2085356;28;1212;-57
2021/01/31 08:04:23;;;;;;;;;;;14.50;53.60;;;;;;2087970;28;1015;-55
2021/01/31 08:05:54;;;;;;;;;;;14.50;53.50;;;;;;2087080;28;1906;-55
2021/01/31 08:07:33;;;;;;;;;;;14.50;53.50;;;;;;2088214;28;1009;-56
2021/01/31 08:08:53;;;;;;;;;;;14.50;53.60;;;;;;2087658;28;1592;-56
2021/01/31 08:10:12;;;;;;;;;;;14.50;53.60;;;;;;2073650;28;998;-56
2021/01/31 08:11:37;;;;;;;;;;;14.50;53.70;;;;;;2097479;28;1283;-54